Sukanuk — MKGN9 — position and weather

sailwx.info

Track history (hours):
 
Tides and Currents Weather Stations Pressure Air Temp Water Temp Dewpoint Dewpoint Depression Visibility Wind Speed Wind Dir Waves Ship Positions

Sukanuk

Last reported at 2016-Jun-15 14:33 UTC. Time now 2016-Dec-07 22:17 UTC.
Position N 54°37' W 005°07'.
Warning: this ship's position is months out of date.

Length 10 m.

Type: Sailing vessel. MMSI: 232005070.

Date/timePositionNaut miles runAvg speedWind from/ knotsBaromVisibWave heightAir tempDewpointWater temp
2016-Jun-15 14:33N 54°37' W 005°07'5 5.4
2016-Jun-15 13:33N 54°39' W 005°15'5 4.7
2016-Jun-15 12:33N 54°41' W 005°22'4 4.1
2016-Jun-15 11:33N 54°43' W 005°29'5 5.4
2016-Jun-15 10:33N 54°41' W 005°38'1 0.0
2016-Jun-14 17:33N 54°41' W 005°39'6 6.2
2016-Jun-14 16:33N 54°46' W 005°33'  
2016-Jun-12 06:33N 54°51' W 005°28'11 5.6
2016-Jun-12 04:33N 54°42' W 005°38'3 0.1
2016-Jun-10 05:25N 54°40' W 005°40'1 1.6
2016-Jun-10 04:33N 54°41' W 005°39'3 3.1
2016-Jun-10 03:33N 54°43' W 005°35'4 4.5
2016-Jun-10 02:34N 54°44' W 005°27'5 4.5
2016-Jun-10 01:33N 54°40' W 005°24'4 3.8
2016-Jun-10 00:33N 54°38' W 005°18'4 3.6
2016-Jun-09 23:33N 54°36' W 005°12'  
Track history (hours):
 
Tides and Currents Weather Stations Pressure Air Temp Water Temp Dewpoint Dewpoint Depression Visibility Wind Speed Wind Dir Waves Ship Positions

Sukanuk

Last reported at 2016-Jun-15 14:33 UTC. Time now 2016-Dec-07 22:17 UTC.
Position N 54°37' W 005°07'.
Warning: this ship's position is months out of date.

Length 10 m.

Type: Sailing vessel. MMSI: 232005070.

Date/timePositionNaut miles runAvg speedWind from/ knotsBaromVisibWave heightAir tempDewpointWater temp
2016-Jun-15 14:33N 54°37' W 005°07'5 5.4
2016-Jun-15 13:33N 54°39' W 005°15'5 4.7
2016-Jun-15 12:33N 54°41' W 005°22'4 4.1
2016-Jun-15 11:33N 54°43' W 005°29'5 5.4
2016-Jun-15 10:33N 54°41' W 005°38'1 0.0
2016-Jun-14 17:33N 54°41' W 005°39'6 6.2
2016-Jun-14 16:33N 54°46' W 005°33'  
2016-Jun-12 06:33N 54°51' W 005°28'11 5.6
2016-Jun-12 04:33N 54°42' W 005°38'3 0.1
2016-Jun-10 05:25N 54°40' W 005°40'1 1.6
2016-Jun-10 04:33N 54°41' W 005°39'3 3.1
2016-Jun-10 03:33N 54°43' W 005°35'4 4.5
2016-Jun-10 02:34N 54°44' W 005°27'5 4.5
2016-Jun-10 01:33N 54°40' W 005°24'4 3.8
2016-Jun-10 00:33N 54°38' W 005°18'4 3.6
2016-Jun-09 23:33N 54°36' W 005°12'  

Dump ship's entire track history